Time;durP1;ratioP1;P1;durP2;ratioP2;P2;SDS_P1;SDS_P2;PMS_P1;PMS_P2;Temp;Humidity;BMP_temperature;BMP_pressure;BME280_temperature;BME280_humidity;BME280_pressure;Samples;Min_cycle;Max_cycle;Signal;HPM_P1;HPM_P2
2022/09/13 00:00:49;;;;;;;9.30;8.15;;;;;;;16.65;82.83;100351.19;4977174;28;20125;-80
2022/09/13 00:03:16;;;;;;;9.38;7.82;;;;;;;16.62;83.75;100351.56;4961999;29;20134;-80
2022/09/13 00:05:43;;;;;;;11.10;7.80;;;;;;;16.59;83.75;100363.34;4961272;29;20047;-80
2022/09/13 00:08:10;;;;;;;8.82;7.57;;;;;;;16.60;83.70;100359.69;4971317;28;20557;-80
2022/09/13 00:10:38;;;;;;;10.32;7.35;;;;;;;16.58;83.27;100358.28;4980394;28;20489;-80
2022/09/13 00:13:15;;;;;;;10.40;7.63;;;;;;;16.57;83.08;100351.34;4962382;28;20145;-81
2022/09/13 00:15:44;;;;;;;8.95;7.60;;;;;;;16.60;83.06;100332.47;4962354;28;20138;-81
2022/09/13 00:18:11;;;;;;;9.73;7.22;;;;;;;16.59;83.00;100338.75;4973607;28;20077;-80
2022/09/13 00:20:38;;;;;;;11.00;7.57;;;;;;;16.58;82.95;100334.50;4982370;28;20074;-80
2022/09/13 00:23:05;;;;;;;9.45;7.32;;;;;;;16.51;83.23;100323.13;4981219;28;20146;-79
2022/09/13 00:25:32;;;;;;;10.02;6.93;;;;;;;16.51;83.29;100317.84;4980518;28;20081;-80
2022/09/13 00:28:01;;;;;;;9.00;7.05;;;;;;;16.44;84.39;100324.97;4977786;28;20146;-79
2022/09/13 00:30:27;;;;;;;9.00;7.60;;;;;;;16.40;85.25;100332.47;4981586;28;20376;-78
2022/09/13 00:32:58;;;;;;;9.20;6.70;;;;;;;16.40;84.90;100329.00;4982455;28;20054;-80
2022/09/13 00:35:25;;;;;;;8.95;6.22;;;;;;;16.36;85.15;100322.50;4981191;28;20474;-79
2022/09/13 00:37:51;;;;;;;9.73;6.78;;;;;;;16.38;84.65;100336.31;4981294;28;20149;-79
2022/09/13 00:40:18;;;;;;;7.93;6.40;;;;;;;16.40;84.52;100326.38;4980299;28;20085;-79
2022/09/13 00:42:45;;;;;;;8.20;6.55;;;;;;;16.42;84.45;100330.44;4971369;28;20134;-79
2022/09/13 00:45:16;;;;;;;7.72;5.80;;;;;;;16.52;84.15;100336.16;4978927;28;20086;-80
2022/09/13 00:47:49;;;;;;;7.97;6.00;;;;;;;16.47;84.14;100327.19;4963768;29;20078;-80
2022/09/13 00:50:20;;;;;;;;;;;;;;;16.56;83.90;100336.53;4965792;29;20051;-80
2022/09/13 00:52:54;;;;;;;8.82;5.97;;;;;;;16.60;83.79;100337.75;4964103;29;20013;-80
2022/09/13 00:55:25;;;;;;;7.22;5.72;;;;;;;16.56;83.69;100331.25;4962388;28;20079;-80
2022/09/13 00:57:54;;;;;;;8.93;5.78;;;;;;;16.57;83.58;100324.94;4961123;28;20086;-80
2022/09/13 01:00:21;;;;;;;10.73;6.00;;;;;;;16.53;83.70;100336.97;4960764;28;20119;-79
2022/09/13 01:02:53;;;;;;;7.63;5.50;;;;;;;16.45;83.98;100323.94;4959738;29;20118;-79
2022/09/13 01:07:50;;;;;;;8.02;5.80;;;;;;;16.41;84.25;100322.72;4987042;28;20061;-77
2022/09/13 01:10:17;;;;;;;8.30;5.55;;;;;;;16.46;83.47;100325.56;4973424;28;20111;-79
2022/09/13 01:12:52;;;;;;;8.98;5.65;;;;;;;16.43;83.25;100323.31;4982283;28;20050;-79
2022/09/13 01:15:19;;;;;;;7.47;5.60;;;;;;;16.54;82.94;100333.31;4993440;28;20057;-79
2022/09/13 01:17:46;;;;;;;13.00;5.60;;;;;;;16.60;82.16;100328.00;4992045;28;20053;-77
2022/09/13 01:20:13;;;;;;;12.85;5.72;;;;;;;16.67;81.85;100330.69;4990815;28;20073;-78
2022/09/13 01:23:25;;;;;;;7.00;5.22;;;;;;;16.72;81.71;100335.34;4991984;28;20476;-78
2022/09/13 01:26:34;;;;;;;8.82;5.10;;;;;;;16.76;81.54;100329.47;4912721;29;20507;-78
2022/09/13 01:29:39;;;;;;;6.72;5.45;;;;;;;16.74;81.56;100318.28;4991375;28;20133;-78
2022/09/13 01:32:19;;;;;;;8.82;5.22;;;;;;;16.79;81.39;100315.03;4944837;28;20054;-79
2022/09/13 01:34:57;;;;;;;9.02;5.25;;;;;;;16.80;81.67;100317.47;5003084;28;20137;-79
2022/09/13 01:37:37;;;;;;;7.47;5.38;;;;;;;16.69;82.12;100318.09;5002499;28;20539;-79
2022/09/13 01:40:16;;;;;;;8.75;5.22;;;;;;;16.66;82.46;100321.13;4993101;28;20054;-80
2022/09/13 01:42:56;;;;;;;8.05;5.03;;;;;;;16.65;82.69;100319.50;4993655;28;20129;-78
2022/09/13 01:45:33;;;;;;;7.78;5.47;;;;;;;16.56;83.22;100316.22;4999461;28;20081;-77
2022/09/13 01:48:07;;;;;;;6.45;4.93;;;;;;;16.56;83.60;100318.84;5012086;28;20074;-78
2022/09/13 01:50:39;;;;;;;6.95;5.28;;;;;;;16.49;83.66;100309.31;5011770;28;20104;-78
2022/09/13 01:53:09;;;;;;;8.55;5.53;;;;;;;16.45;83.47;100294.91;4998112;28;20530;-78
2022/09/13 01:55:44;;;;;;;8.85;6.38;;;;;;;16.32;84.55;100308.06;4993045;28;20108;-77
2022/09/13 01:58:21;;;;;;;7.18;5.82;;;;;;;16.30;84.84;100308.28;4991288;28;20181;-78
2022/09/13 02:00:55;;;;;;;7.97;6.35;;;;;;;16.29;85.14;100309.28;4991674;28;20053;-78
2022/09/13 02:03:30;;;;;;;8.65;6.90;;;;;;;16.33;85.36;100310.50;4992237;28;20512;-78
2022/09/13 02:06:00;;;;;;;9.57;7.13;;;;;;;16.27;85.61;100306.84;4991691;28;20210;-79
2022/09/13 02:08:35;;;;;;;8.50;6.70;;;;;;;16.29;85.82;100309.28;4991410;28;20444;-78
2022/09/13 02:11:08;;;;;;;9.35;6.13;;;;;;;16.29;85.98;100303.19;4992165;28;20413;-78
2022/09/13 02:13:38;;;;;;;9.25;6.07;;;;;;;16.26;85.98;100299.13;4991571;28;20053;-77
2022/09/13 02:16:11;;;;;;;6.70;6.00;;;;;;;16.25;85.96;100305.41;4990532;28;20049;-77
2022/09/13 02:18:41;;;;;;;6.95;5.93;;;;;;;16.23;86.43;100300.34;4989930;28;20568;-76
2022/09/13 02:21:12;;;;;;;7.43;5.60;;;;;;;16.23;86.47;100284.50;4991165;28;20501;-77
2022/09/13 02:23:44;;;;;;;10.25;6.05;;;;;;;16.29;86.68;100292.63;4991184;28;20054;-77
2022/09/13 02:26:14;;;;;;;7.60;5.97;;;;;;;16.35;86.11;100286.56;4994031;28;20066;-80
2022/09/13 02:28:44;;;;;;;9.00;6.55;;;;;;;16.33;86.38;100283.28;4991140;28;20133;-78
2022/09/13 02:31:12;;;;;;;9.73;5.93;;;;;;;16.37;86.45;100284.53;4992539;28;20058;-78
2022/09/13 02:33:45;;;;;;;8.00;6.07;;;;;;;16.34;86.48;100280.47;4995407;28;20159;-78
2022/09/13 02:36:16;;;;;;;7.28;6.25;;;;;;;16.37;86.34;100293.25;4994924;28;20058;-78
2022/09/13 02:38:47;;;;;;;8.93;6.60;;;;;;;16.24;86.55;100269.47;4994664;28;20165;-78
2022/09/13 02:41:18;;;;;;;9.00;6.68;;;;;;;16.33;87.04;100286.75;4995161;28;20051;-78
2022/09/13 02:43:50;;;;;;;8.45;6.80;;;;;;;16.42;86.13;100297.94;4999320;28;20108;-80
2022/09/13 02:46:27;;;;;;;12.73;6.30;;;;;;;16.46;85.89;100289.41;4999773;28;20092;-80
2022/09/13 02:49:03;;;;;;;10.43;5.78;;;;;;;16.46;85.63;100292.06;4999030;28;20081;-79
2022/09/13 02:51:38;;;;;;;7.85;6.40;;;;;;;16.45;85.23;100286.97;4999294;28;20089;-79
2022/09/13 02:54:21;;;;;;;7.15;5.72;;;;;;;16.52;85.87;100304.44;4998878;28;20084;-80
2022/09/13 02:56:54;;;;;;;7.65;5.97;;;;;;;16.48;86.58;100303.22;4999096;28;20137;-78
2022/09/13 02:59:23;;;;;;;9.30;6.13;;;;;;;16.51;86.96;100305.47;4998595;28;20564;-79
2022/09/13 03:01:58;;;;;;;9.95;6.15;;;;;;;16.50;87.52;100300.38;4997960;28;20057;-79
2022/09/13 03:04:26;;;;;;;9.77;5.60;;;;;;;16.50;88.65;100305.66;4997669;28;20057;-79
2022/09/13 03:06:53;;;;;;;7.80;6.22;;;;;;;16.51;88.39;100302.00;4997114;28;20062;-79
2022/09/13 03:09:20;;;;;;;8.48;6.28;;;;;;;16.50;87.63;100303.84;4998410;28;20105;-80
2022/09/13 03:12:02;;;;;;;9.02;6.38;;;;;;;16.46;87.18;100302.63;4998311;28;20054;-79
2022/09/13 03:14:40;;;;;;;7.43;6.47;;;;;;;16.42;87.55;100305.84;4995163;28;20056;-78
2022/09/13 03:17:41;;;;;;;9.18;7.20;;;;;;;16.41;88.37;100298.94;4993708;28;20050;-78
2022/09/13 03:20:13;;;;;;;10.73;7.78;;;;;;;16.37;88.61;100303.81;4993834;28;20101;-79
2022/09/13 03:23:09;;;;;;;11.15;8.48;;;;;;;16.35;88.52;100297.13;4994537;28;20133;-78
2022/09/13 03:26:03;;;;;;;10.18;8.40;;;;;;;16.37;89.61;100295.91;4994171;28;20060;-78
2022/09/13 03:28:38;;;;;;;9.60;8.60;;;;;;;16.46;89.64;100299.16;4993359;28;20093;-78
2022/09/13 03:31:09;;;;;;;9.52;8.15;;;;;;;16.55;90.05;100292.63;4993877;28;20125;-78
2022/09/13 03:33:44;;;;;;;9.02;7.63;;;;;;;16.52;89.12;100282.50;4993845;28;20069;-77
2022/09/13 03:36:18;;;;;;;11.02;8.15;;;;;;;16.56;87.30;100275.78;4997078;28;20054;-78
2022/09/13 03:38:53;;;;;;;11.35;8.27;;;;;;;16.59;87.19;100281.47;4996801;28;20073;-77
2022/09/13 03:41:24;;;;;;;10.90;8.52;;;;;;;16.52;87.33;100275.41;4993916;28;20519;-78
2022/09/13 03:43:55;;;;;;;11.52;8.65;;;;;;;16.51;87.21;100272.97;4992929;28;20057;-79
2022/09/13 03:46:28;;;;;;;9.27;8.27;;;;;;;16.52;87.77;100269.31;4994057;28;20077;-79
2022/09/13 03:48:56;;;;;;;8.88;7.97;;;;;;;16.54;88.24;100275.97;4993751;28;20050;-79
2022/09/13 03:51:25;;;;;;;12.57;8.73;;;;;;;16.52;88.55;100267.47;4993933;28;20133;-79
2022/09/13 03:53:56;;;;;;;9.98;8.30;;;;;;;16.47;88.86;100266.47;4975932;28;20054;-79
2022/09/13 03:56:23;;;;;;;14.20;8.68;;;;;;;16.46;88.96;100272.75;4978109;28;20058;-79
2022/09/13 03:58:50;;;;;;;11.40;8.52;;;;;;;16.48;89.57;100274.19;4980687;28;20478;-80
2022/09/13 04:01:20;;;;;;;9.77;8.38;;;;;;;16.44;89.68;100269.50;4997535;28;20053;-79
2022/09/13 04:03:47;;;;;;;11.55;8.70;;;;;;;16.48;90.93;100279.47;4997342;28;20061;-79
2022/09/13 04:06:14;;;;;;;9.27;8.27;;;;;;;16.46;90.77;100272.75;4997789;28;20556;-80
2022/09/13 04:08:43;;;;;;;15.25;8.77;;;;;;;16.44;91.14;100272.94;4997118;28;20478;-79
2022/09/13 04:11:10;;;;;;;9.95;8.80;;;;;;;16.46;90.51;100291.25;4996290;28;20046;-80
2022/09/13 04:13:37;;;;;;;10.85;8.27;;;;;;;16.46;90.27;100288.59;4996319;28;20133;-78
2022/09/13 04:16:05;;;;;;;12.85;8.25;;;;;;;16.46;90.14;100292.06;4992474;28;20493;-78
2022/09/13 04:18:32;;;;;;;10.73;8.60;;;;;;;16.50;90.04;100290.63;4993490;28;20101;-79
2022/09/13 04:21:00;;;;;;;11.15;8.30;;;;;;;16.48;90.57;100283.94;4993772;28;20089;-78
2022/09/13 04:23:28;;;;;;;13.18;8.82;;;;;;;16.47;89.95;100284.94;4993355;28;20057;-78
2022/09/13 04:26:01;;;;;;;11.57;8.63;;;;;;;16.45;89.96;100297.53;4993072;28;20046;-78
2022/09/13 04:28:27;;;;;;;;;;;;;;;16.42;89.97;100296.09;4997681;28;20053;-80
2022/09/13 04:30:54;;;;;;;13.60;8.90;;;;;;;16.48;90.10;100282.09;4995763;28;20012;-79
2022/09/13 04:33:21;;;;;;;13.50;8.75;;;;;;;16.48;91.22;100287.38;4993524;28;20086;-79
2022/09/13 04:35:48;;;;;;;11.00;8.45;;;;;;;16.46;91.42;100280.69;4993395;28;20058;-79
2022/09/13 04:38:14;;;;;;;14.15;9.15;;;;;;;16.48;91.59;100286.56;4993274;28;20120;-79
2022/09/13 04:40:41;;;;;;;13.07;8.90;;;;;;;16.47;91.53;100290.22;4994604;28;20497;-79
2022/09/13 04:43:09;;;;;;;12.98;9.38;;;;;;;16.50;91.25;100287.19;4996457;28;20126;-80
2022/09/13 04:45:38;;;;;;;12.07;8.98;;;;;;;16.45;91.13;100289.59;4993704;28;20077;-78
2022/09/13 04:48:04;;;;;;;13.27;9.30;;;;;;;16.39;90.85;100283.31;4996760;28;20056;-79
2022/09/13 04:50:31;;;;;;;13.10;8.90;;;;;;;16.46;90.73;100297.34;4993584;28;20489;-80
2022/09/13 04:52:58;;;;;;;12.00;8.93;;;;;;;16.48;90.63;100292.66;4995478;28;20159;-79
2022/09/13 04:55:25;;;;;;;15.38;9.45;;;;;;;16.45;91.20;100297.53;4996507;28;20050;-79
2022/09/13 04:57:55;;;;;;;13.95;9.13;;;;;;;16.45;91.62;100295.72;4999636;28;20050;-81
2022/09/13 05:00:25;;;;;;;22.70;9.82;;;;;;;16.43;91.18;100299.56;4995077;28;20133;-79
2022/09/13 05:02:55;;;;;;;12.38;9.55;;;;;;;16.46;90.96;100292.06;4998776;28;20054;-79
2022/09/13 05:05:21;;;;;;;16.00;9.55;;;;;;;16.48;91.23;100305.88;4995701;28;20097;-78
2022/09/13 05:07:50;;;;;;;14.38;9.40;;;;;;;16.45;91.65;100297.53;4993718;28;20453;-79
2022/09/13 05:10:16;;;;;;;11.90;9.27;;;;;;;16.44;91.97;100301.19;4993435;28;20129;-78
2022/09/13 05:12:43;;;;;;;11.18;8.95;;;;;;;16.42;92.10;100303.22;4992928;28;20060;-78
2022/09/13 05:15:11;;;;;;;17.27;9.30;;;;;;;16.41;92.42;100305.03;4992709;28;20409;-77
2022/09/13 05:17:41;;;;;;;15.90;9.75;;;;;;;16.45;92.39;100302.81;4992329;28;20062;-79
2022/09/13 05:20:08;;;;;;;13.30;9.50;;;;;;;16.41;92.27;100312.97;4995606;28;20146;-78
2022/09/13 05:22:35;;;;;;;11.32;8.88;;;;;;;16.40;92.20;100298.13;4994277;28;20145;-79
2022/09/13 05:25:01;;;;;;;10.43;8.70;;;;;;;16.43;92.38;100299.56;4996376;28;20096;-79
2022/09/13 05:27:28;;;;;;;14.60;9.90;;;;;;;16.47;92.97;100303.44;5005072;28;20110;-80
2022/09/13 05:29:54;;;;;;;11.70;9.25;;;;;;;16.44;92.48;100301.19;5001572;28;20142;-80
2022/09/13 05:32:21;;;;;;;9.80;8.63;;;;;;;16.41;92.72;100301.59;5006432;28;20050;-79
2022/09/13 05:34:49;;;;;;;12.23;8.80;;;;;;;16.40;93.17;100299.97;5008524;28;20054;-82
2022/09/13 05:37:16;;;;;;;13.38;9.10;;;;;;;16.39;93.15;100300.97;5009961;28;20050;-83
2022/09/13 05:39:42;;;;;;;12.57;8.68;;;;;;;16.44;93.06;100290.63;5000710;28;20476;-79
2022/09/13 05:42:11;;;;;;;15.18;8.30;;;;;;;16.44;93.20;100295.91;4996364;28;20133;-79
2022/09/13 05:44:37;;;;;;;12.52;9.75;;;;;;;16.46;93.22;100288.59;4995051;28;20056;-79
2022/09/13 05:47:04;;;;;;;12.95;9.45;;;;;;;16.47;93.34;100284.94;5001559;28;20078;-80
2022/09/13 05:49:31;;;;;;;12.52;8.68;;;;;;;16.51;93.69;100280.88;4993509;28;20050;-80
2022/09/13 05:51:59;;;;;;;10.93;8.73;;;;;;;16.55;93.81;100296.09;4992615;28;20145;-79
2022/09/13 05:54:26;;;;;;;15.82;9.98;;;;;;;16.64;92.87;100299.38;4997067;28;20183;-79
2022/09/13 05:56:56;;;;;;;16.67;10.90;;;;;;;16.68;92.58;100305.88;4996972;28;20429;-79
2022/09/13 05:59:23;;;;;;;15.48;11.10;;;;;;;16.71;92.29;100296.75;4999536;28;20113;-81
2022/09/13 06:01:49;;;;;;;17.67;11.45;;;;;;;16.83;92.10;100289.81;4993345;28;20050;-78
2022/09/13 06:04:16;;;;;;;20.48;11.15;;;;;;;16.82;91.42;100291.66;4991669;28;20576;-79
2022/09/13 06:06:42;;;;;;;19.27;11.32;;;;;;;16.87;91.71;100286.56;4990837;28;20136;-77
2022/09/13 06:09:12;;;;;;;16.67;11.10;;;;;;;16.88;91.97;100287.38;4990697;28;20064;-78
2022/09/13 06:11:39;;;;;;;16.55;10.93;;;;;;;17.02;92.49;100294.25;4991650;28;20069;-77
2022/09/13 06:14:06;;;;;;;16.00;11.00;;;;;;;17.04;92.13;100296.69;4992516;28;20076;-79
2022/09/13 06:16:32;;;;;;;18.92;11.07;;;;;;;17.18;91.07;100303.59;4991518;28;20053;-77
2022/09/13 06:18:59;;;;;;;21.38;11.57;;;;;;;17.22;90.62;100299.50;4990684;28;20163;-76
2022/09/13 06:21:27;;;;;;;14.98;11.38;;;;;;;17.27;90.35;100312.94;4991204;28;20124;-78
2022/09/13 06:23:54;;;;;;;19.55;11.20;;;;;;;17.27;90.39;100301.53;4991511;28;20050;-77
2022/09/13 06:26:24;;;;;;;15.60;10.85;;;;;;;17.34;89.54;100308.44;4990558;28;20047;-78
2022/09/13 06:28:52;;;;;;;23.10;11.25;;;;;;;17.30;89.69;100309.06;4990832;28;20081;-78
2022/09/13 06:31:20;;;;;;;18.83;11.95;;;;;;;17.21;90.41;100304.00;4991128;28;20088;-78
2022/09/13 06:33:47;;;;;;;15.43;12.30;;;;;;;17.24;90.90;100298.28;4991179;28;20046;-78
2022/09/13 06:36:17;;;;;;;12.82;10.57;;;;;;;17.37;90.02;100292.16;4991346;28;20140;-79
2022/09/13 06:38:44;;;;;;;14.02;10.70;;;;;;;17.45;89.77;100289.28;4994817;28;20350;-77
2022/09/13 06:41:13;;;;;;;14.20;10.52;;;;;;;17.51;89.25;100291.06;4991559;28;20056;-77
2022/09/13 06:43:41;;;;;;;17.38;10.15;;;;;;;17.57;88.55;100295.53;4991201;28;20109;-79
2022/09/13 06:46:10;;;;;;;13.20;10.30;;;;;;;17.58;87.85;100299.78;4990870;28;20060;-77
2022/09/13 06:48:38;;;;;;;17.40;9.88;;;;;;;17.75;87.51;100302.00;4990758;28;20491;-78
2022/09/13 06:51:07;;;;;;;18.13;9.90;;;;;;;17.67;87.26;100296.94;4991806;28;20201;-79
2022/09/13 06:53:35;;;;;;;14.95;10.00;;;;;;;17.69;87.90;100308.13;4995622;28;20149;-77
2022/09/13 06:56:04;;;;;;;14.82;10.40;;;;;;;17.70;87.48;100302.63;4996637;28;20134;-79
2022/09/13 06:58:31;;;;;;;14.48;10.63;;;;;;;17.83;86.90;100299.94;4991360;28;20315;-77
2022/09/13 07:01:14;;;;;;;15.63;10.40;;;;;;;17.80;87.31;100305.66;4991626;28;20057;-77
2022/09/13 07:03:42;;;;;;;;;;;;;;;17.86;87.99;100294.22;4992725;28;20505;-79
2022/09/13 07:06:13;;;;;;;15.20;9.50;;;;;;;18.17;88.48;100304.00;5014624;23;19969;-82
2022/09/13 07:08:44;;;;;;;14.05;9.88;;;;;;;18.13;87.63;100286.91;5019403;28;20050;-79
2022/09/13 07:11:14;;;;;;;17.65;9.70;;;;;;;18.18;87.50;100291.56;5021575;28;20489;-80
2022/09/13 07:13:41;;;;;;;12.98;8.95;;;;;;;18.39;87.76;100306.31;5018687;28;20050;-79
2022/09/13 07:16:10;;;;;;;17.85;8.65;;;;;;;18.22;86.44;100303.38;5014720;28;20117;-80
2022/09/13 07:18:38;;;;;;;15.57;8.93;;;;;;;18.35;86.70;100305.94;5017988;28;20136;-79
2022/09/13 07:21:07;;;;;;;13.85;8.45;;;;;;;18.33;86.17;100296.59;5022321;28;20046;-79
2022/09/13 07:23:35;;;;;;;16.33;8.63;;;;;;;18.35;86.51;100294.53;5024471;28;20046;-78
2022/09/13 07:26:04;;;;;;;12.35;8.10;;;;;;;18.63;86.06;100302.06;5023084;28;20046;-78
2022/09/13 07:28:33;;;;;;;11.88;8.45;;;;;;;18.54;86.38;100294.38;5022832;28;20042;-79
2022/09/13 07:31:05;;;;;;;11.68;8.38;;;;;;;18.94;85.97;100298.53;5026083;28;20084;-79
2022/09/13 07:33:31;;;;;;;13.10;7.72;;;;;;;19.01;83.70;100299.28;5022954;28;20093;-80
2022/09/13 07:36:01;;;;;;;13.00;8.00;;;;;;;19.19;83.84;100299.31;5024678;28;20118;-78
2022/09/13 07:38:28;;;;;;;13.90;8.25;;;;;;;19.40;82.31;100296.19;5021088;28;20164;-79
2022/09/13 07:40:56;;;;;;;15.27;7.88;;;;;;;19.48;80.90;100287.94;5028465;28;20049;-81
2022/09/13 07:43:23;;;;;;;13.48;8.05;;;;;;;19.52;81.23;100301.59;5020576;28;20050;-79
2022/09/13 07:45:57;;;;;;;13.95;8.07;;;;;;;19.66;79.88;100304.91;5018404;28;20070;-79
2022/09/13 07:48:24;;;;;;;10.13;7.55;;;;;;;19.50;80.09;100304.44;5018916;28;20405;-78
2022/09/13 07:50:59;;;;;;;11.05;7.78;;;;;;;19.30;80.39;100306.53;5018862;28;20085;-78
2022/09/13 07:53:26;;;;;;;16.10;8.00;;;;;;;19.42;80.88;100304.75;5024536;28;20069;-79
2022/09/13 07:55:53;;;;;;;14.10;8.02;;;;;;;19.69;80.83;100317.75;5024937;28;20550;-81
2022/09/13 07:58:20;;;;;;;11.15;7.75;;;;;;;19.99;80.01;100315.91;5025538;28;20053;-79
2022/09/13 08:00:47;;;;;;;15.82;8.10;;;;;;;20.00;78.95;100317.53;5017918;28;20050;-77
2022/09/13 08:03:13;;;;;;;7.65;6.65;;;;;;;20.00;78.81;100306.09;5019640;28;20535;-80
2022/09/13 08:05:40;;;;;;;16.38;7.40;;;;;;;19.96;78.97;100310.25;5022179;28;20054;-79
2022/09/13 08:08:08;;;;;;;16.67;7.07;;;;;;;20.04;77.78;100294.81;5026148;28;20054;-79
2022/09/13 08:10:35;;;;;;;12.07;6.88;;;;;;;20.40;77.60;100298.38;5021679;28;20160;-79
2022/09/13 08:13:01;;;;;;;10.07;6.70;;;;;;;20.67;76.42;100299.59;5020324;28;20497;-79
2022/09/13 08:15:28;;;;;;;10.48;6.78;;;;;;;20.71;75.87;100306.06;5017904;28;20053;-80
2022/09/13 08:17:55;;;;;;;15.05;6.90;;;;;;;20.96;74.90;100307.69;5020204;28;20073;-80
2022/09/13 08:20:21;;;;;;;16.92;6.90;;;;;;;20.90;74.48;100314.72;5019278;28;20128;-80
2022/09/13 08:22:48;;;;;;;8.57;6.57;;;;;;;21.13;73.65;100308.59;5020957;28;20042;-80
2022/09/13 08:25:16;;;;;;;10.85;6.47;;;;;;;21.59;73.31;100322.91;5021502;28;20516;-80
2022/09/13 08:27:43;;;;;;;14.45;6.57;;;;;;;21.74;72.85;100315.22;5022283;28;20073;-80
2022/09/13 08:30:10;;;;;;;11.02;6.20;;;;;;;22.07;71.60;100314.53;5022347;28;20716;-81
2022/09/13 08:32:37;;;;;;;11.55;5.97;;;;;;;21.95;70.73;100317.22;5023701;28;20105;-80
2022/09/13 08:35:04;;;;;;;14.05;6.00;;;;;;;21.67;70.84;100317.22;5024206;28;20137;-79
2022/09/13 08:37:34;;;;;;;8.63;5.97;;;;;;;22.06;70.07;100319.03;5024430;28;20137;-81
2022/09/13 08:40:00;;;;;;;13.18;6.07;;;;;;;22.54;69.82;100320.41;5022319;28;20137;-81
2022/09/13 08:42:46;;;;;;;9.85;5.53;;;;;;;22.73;67.96;100320.94;5021820;28;20144;-81
2022/09/13 08:45:13;;;;;;;7.97;5.65;;;;;;;22.93;69.01;100312.47;5034802;28;20049;-78
2022/09/13 08:47:48;;;;;;;9.95;6.10;;;;;;;23.12;66.90;100317.31;5015530;28;20159;-80
2022/09/13 08:50:19;;;;;;;8.68;5.45;;;;;;;23.31;66.84;100328.47;5010175;28;20076;-79
2022/09/13 08:52:59;;;;;;;10.88;5.70;;;;;;;23.58;65.08;100328.59;5011198;28;20053;-80
2022/09/13 08:55:38;;;;;;;7.93;5.38;;;;;;;23.91;65.15;100324.16;5018879;28;20110;-78
2022/09/13 08:58:19;;;;;;;11.18;5.30;;;;;;;24.09;63.61;100326.50;5017865;28;20046;-79
2022/09/13 09:00:53;;;;;;;7.57;4.72;;;;;;;23.90;62.66;100319.88;5017346;28;20044;-80
2022/09/13 09:03:30;;;;;;;9.40;4.88;;;;;;;24.05;63.62;100320.84;5008163;28;20073;-79
2022/09/13 09:05:57;;;;;;;8.75;5.03;;;;;;;23.87;62.36;100328.38;5003301;28;20157;-79
2022/09/13 09:08:32;;;;;;;10.90;4.78;;;;;;;23.63;63.98;100317.19;4999267;28;20077;-80
2022/09/13 09:11:06;;;;;;;8.13;4.70;;;;;;;23.77;64.31;100321.88;5007538;28;20409;-80
2022/09/13 09:13:48;;;;;;;6.88;4.32;;;;;;;23.69;64.57;100308.13;5019354;28;20134;-80
2022/09/13 09:16:29;;;;;;;9.07;4.72;;;;;;;23.64;64.82;100319.56;5016205;28;20073;-79
2022/09/13 09:18:59;;;;;;;6.00;4.85;;;;;;;23.75;65.92;100307.94;5016375;28;20458;-80
2022/09/13 09:21:27;;;;;;;8.43;4.45;;;;;;;23.77;65.54;100313.84;5014117;28;20057;-80
2022/09/13 09:23:55;;;;;;;6.13;4.40;;;;;;;24.19;64.00;100315.06;5019650;28;20109;-80
2022/09/13 09:26:25;;;;;;;7.60;4.28;;;;;;;24.21;63.39;100319.09;5011107;28;20153;-79
2022/09/13 09:28:55;;;;;;;5.82;4.00;;;;;;;24.41;63.05;100313.97;5008269;28;20057;-80
2022/09/13 09:31:32;;;;;;;4.97;3.97;;;;;;;24.49;61.71;100310.03;5013796;28;20177;-79
2022/09/13 09:34:11;;;;;;;7.20;4.32;;;;;;;24.35;62.12;100304.28;5020422;28;20097;-80
2022/09/13 09:36:42;;;;;;;5.18;4.18;;;;;;;24.32;62.07;100304.00;5018505;28;20101;-79
2022/09/13 09:39:12;;;;;;;7.13;4.05;;;;;;;24.49;62.57;100307.34;5020492;28;20042;-80
2022/09/13 09:41:39;;;;;;;8.55;3.90;;;;;;;24.57;61.75;100304.22;5020589;28;20041;-80
2022/09/13 09:44:17;;;;;;;6.70;3.85;;;;;;;24.78;62.16;100307.81;5021178;28;20109;-78
2022/09/13 09:46:47;;;;;;;9.60;3.85;;;;;;;24.90;62.18;100313.00;5018104;28;20074;-79
2022/09/13 09:52:06;;;;;;;8.30;3.70;;;;;;;24.88;60.88;100307.91;5015206;28;20060;-80
2022/09/13 09:54:35;;;;;;;5.15;3.40;;;;;;;24.93;61.18;100312.47;5018897;28;20054;-79
2022/09/13 09:57:01;;;;;;;5.45;3.67;;;;;;;25.12;60.81;100303.78;5019997;28;20060;-79
2022/09/13 09:59:32;;;;;;;6.72;3.92;;;;;;;25.10;60.51;100297.06;5019725;28;20081;-81
2022/09/13 10:02:06;;;;;;;7.72;3.80;;;;;;;25.11;60.77;100306.72;5020535;28;20100;-80
2022/09/13 10:04:33;;;;;;;11.60;4.43;;;;;;;25.14;60.14;100303.50;5017797;28;20193;-79
2022/09/13 10:07:26;;;;;;;11.75;4.00;;;;;;;25.24;59.57;100292.84;5018522;28;20081;-80
2022/09/13 10:10:00;;;;;;;6.35;3.72;;;;;;;25.51;59.79;100302.63;5006797;28;20050;-80
2022/09/13 10:12:27;;;;;;;7.90;3.70;;;;;;;25.71;60.05;100300.03;5004911;28;20073;-78
2022/09/13 10:15:04;;;;;;;6.25;4.30;;;;;;;25.65;59.12;100306.44;5004328;28;20045;-79
2022/09/13 10:17:31;;;;;;;10.23;5.50;;;;;;;25.81;58.88;100307.28;5013473;28;20074;-80
2022/09/13 10:20:00;;;;;;;6.93;4.38;;;;;;;25.48;58.95;100305.81;5012472;28;20056;-79
2022/09/13 10:22:28;;;;;;;6.78;4.10;;;;;;;25.61;58.98;100297.28;5019309;28;20140;-79
2022/09/13 10:24:55;;;;;;;7.13;4.05;;;;;;;25.68;58.18;100293.31;5011893;28;20420;-81
2022/09/13 10:27:26;;;;;;;5.75;4.20;;;;;;;25.73;57.75;100290.66;5018710;28;20072;-79
2022/09/13 10:29:58;;;;;;;5.55;3.80;;;;;;;25.73;58.85;100297.88;5002510;28;20516;-79
2022/09/13 10:32:26;;;;;;;7.90;3.92;;;;;;;25.52;58.32;100288.16;5019733;28;20108;-80
2022/09/13 10:34:55;;;;;;;10.32;4.15;;;;;;;25.29;59.83;100284.84;5018662;28;20120;-80
2022/09/13 10:37:25;;;;;;;8.93;4.40;;;;;;;25.06;60.20;100277.22;5019469;28;20457;-80
2022/09/13 10:40:00;;;;;;;7.15;4.05;;;;;;;24.86;62.06;100277.09;5017750;28;20128;-79
2022/09/13 10:42:29;;;;;;;5.03;4.15;;;;;;;24.98;61.53;100273.19;5012068;28;20046;-80
2022/09/13 10:45:01;;;;;;;8.55;4.53;;;;;;;24.99;61.04;100282.03;5015901;28;20046;-80
2022/09/13 10:47:33;;;;;;;7.82;4.50;;;;;;;24.80;62.05;100277.06;5012430;28;20128;-80
2022/09/13 10:50:12;;;;;;;5.22;4.00;;;;;;;24.79;61.53;100277.31;5008825;28;20397;-79
2022/09/13 10:52:44;;;;;;;4.55;3.42;;;;;;;24.71;61.57;100280.47;5015559;28;20081;-80
2022/09/13 10:55:36;;;;;;;5.75;3.67;;;;;;;24.79;60.98;100278.13;5021921;28;20388;-80
2022/09/13 10:58:22;;;;;;;20.10;4.37;;;;;;;24.66;60.74;100275.91;5005391;28;20046;-77
2022/09/13 11:01:04;;;;;;;9.07;3.83;;;;;;;24.49;61.33;100272.59;5020079;28;20159;-79
2022/09/13 11:03:48;;;;;;;6.30;3.72;;;;;;;24.53;61.38;100267.53;5018240;28;20572;-80
2022/09/13 11:06:26;;;;;;;8.48;4.18;;;;;;;24.83;60.75;100272.28;5018932;28;20133;-80
2022/09/13 11:09:01;;;;;;;7.55;3.40;;;;;;;24.88;60.53;100270.44;5019702;28;20042;-80
2022/09/13 11:11:37;;;;;;;7.65;3.63;;;;;;;25.18;60.50;100272.47;5021868;28;20056;-80
2022/09/13 11:14:26;;;;;;;6.70;3.65;;;;;;;25.54;59.54;100267.25;5024080;28;20516;-81
2022/09/13 11:17:03;;;;;;;11.52;4.10;;;;;;;25.82;59.03;100269.50;5025241;28;20085;-79
2022/09/13 11:19:57;;;;;;;8.60;3.80;;;;;;;25.92;58.61;100269.53;5024549;28;20401;-79
2022/09/13 11:22:46;;;;;;;8.20;4.40;;;;;;;25.87;58.32;100261.47;5025622;28;20480;-78
2022/09/13 11:25:28;;;;;;;14.48;4.70;;;;;;;25.64;57.99;100252.03;5024425;28;20105;-81
2022/09/13 11:28:03;;;;;;;7.63;4.28;;;;;;;25.53;58.68;100253.03;5024822;28;20109;-79
2022/09/13 11:30:38;;;;;;;6.10;4.05;;;;;;;25.69;59.48;100244.00;5028376;28;20081;-83
2022/09/13 11:33:24;;;;;;;12.38;4.72;;;;;;;25.48;60.03;100249.56;5021191;28;20128;-80
2022/09/13 11:36:04;;;;;;;8.23;4.28;;;;;;;25.68;61.54;100249.63;5018982;28;20105;-80
2022/09/13 11:38:38;;;;;;;8.07;4.18;;;;;;;25.60;60.40;100239.41;5020364;28;20073;-79
2022/09/13 11:41:28;;;;;;;6.38;4.43;;;;;;;25.51;58.89;100236.47;5023681;28;20046;-82
2022/09/13 11:44:18;;;;;;;7.43;4.30;;;;;;;25.51;58.75;100233.78;5014006;28;20058;-80
2022/09/13 11:46:54;;;;;;;8.43;4.55;;;;;;;25.75;57.94;100234.91;5005589;28;20137;-80